Virgin, Utah
Current Conditions -  °F | °C
As of 4:55 PM on Friday 21 Nov 2014 (Local Time) from KSGU Reporting Station
Clear Clear  
Wind Chill: 63°   Ceiling: Unl
Heat Index: 63°   Visibility: 10mi
Dew Point: 21°   Wind: 3mph
Humidity: 20%   Direction: 160°SSE
Pressure: 29.97"   Gusts: NA
Location:  37.21°N, 113.19°W
Report Text: KSGU 212355Z AUTO 16003KT 10SM CLR 17/M06 A2997 RMK AO1 10180 20090 401800030 54000
Loading
Personal Weather Stations






























Interactive Weather Map New forecast layout! Learn more

10-Day Weather Forecast

Advertisements
Track Severe Weather on mobile